Time;durP1;ratioP1;P1;durP2;ratioP2;P2;SDS_P1;SDS_P2;PMS_P1;PMS_P2;Temp;Humidity;BMP_temperature;BMP_pressure;BME280_temperature;BME280_humidity;BME280_pressure;Samples;Min_cycle;Max_cycle;Signal;HPM_P1;HPM_P2
2024/04/03 00:00:44;;;;;;;6.30;3.20;;;;;;;8.87;76.18;98551.02;102859;1262;99142;-84
2024/04/03 00:03:30;;;;;;;6.20;3.20;;;;;;;8.90;76.26;98552.61;102919;1264;114009;-85
2024/04/03 00:05:57;;;;;;;5.40;3.00;;;;;;;8.91;76.16;98551.67;102731;1262;138188;-87
2024/04/03 00:08:23;;;;;;;6.00;2.90;;;;;;;8.93;76.18;98549.98;102842;1262;99159;-87
2024/04/03 00:10:48;;;;;;;;;;;;;;;8.94;76.10;98547.17;102759;1262;138193;-85
2024/04/03 00:13:15;;;;;;;4.90;2.90;;;;;;;8.97;76.13;98546.48;102812;1261;99296;-85
2024/04/03 00:15:39;;;;;;;;;;;;;;;8.98;76.01;98547.14;102788;1266;111955;-84
2024/04/03 00:18:07;;;;;;;6.70;3.10;;;;;;;8.99;76.03;98550.23;102688;1262;124905;-84
2024/04/03 00:20:34;;;;;;;6.00;3.10;;;;;;;8.98;76.01;98548.70;102925;1262;99720;-85
2024/04/03 00:23:01;;;;;;;6.60;3.50;;;;;;;8.98;75.94;98548.02;102746;1262;139418;-86
2024/04/03 00:25:27;;;;;;;8.50;3.40;;;;;;;8.97;75.99;98541.80;102796;1262;99058;-86
2024/04/03 00:27:54;;;;;;;10.00;4.10;;;;;;;8.97;75.86;98542.35;102836;1262;111891;-86
2024/04/03 00:30:20;;;;;;;5.80;3.30;;;;;;;8.95;75.75;98538.83;102829;1262;107069;-83
2024/04/03 00:32:47;;;;;;;7.10;3.30;;;;;;;8.93;75.75;98540.63;102780;1262;99262;-85
2024/04/03 00:35:13;;;;;;;5.60;3.20;;;;;;;8.92;75.88;98545.34;102718;1262;139138;-85
2024/04/03 00:37:40;;;;;;;7.20;3.20;;;;;;;8.91;75.90;98548.05;102813;1262;99153;-84
2024/04/03 00:40:10;;;;;;;7.30;3.20;;;;;;;8.89;75.89;98547.08;102714;1266;139022;-83
2024/04/03 00:42:36;;;;;;;7.70;3.30;;;;;;;8.90;75.80;98559.52;102103;1266;1003101;-84
2024/04/03 00:45:03;;;;;;;5.30;2.90;;;;;;;8.90;75.88;98552.77;102899;1261;100056;-84
2024/04/03 00:47:30;;;;;;;5.00;3.10;;;;;;;8.91;75.80;98553.39;103072;1267;137219;-87
2024/04/03 00:49:58;;;;;;;5.30;3.10;;;;;;;8.92;75.97;98552.31;102876;1262;99308;-85
2024/04/03 00:52:25;;;;;;;5.30;3.20;;;;;;;8.93;75.78;98561.09;102721;1262;138332;-87
2024/04/03 00:54:52;;;;;;;6.50;3.60;;;;;;;8.94;76.03;98549.97;102864;1262;107683;-84
2024/04/03 00:57:18;;;;;;;5.20;3.30;;;;;;;8.96;75.94;98555.23;102931;1262;99179;-85
2024/04/03 00:59:45;;;;;;;6.60;3.30;;;;;;;8.97;75.88;98554.14;102771;1262;138402;-83
2024/04/03 01:02:13;;;;;;;6.10;3.40;;;;;;;8.97;75.97;98553.42;102912;1264;99171;-86
2024/04/03 01:04:39;;;;;;;5.20;3.40;;;;;;;8.98;76.05;98556.34;102720;1264;139196;-84
2024/04/03 01:07:06;;;;;;;;;;;;;;;8.98;76.06;98557.57;102856;1262;107861;-82
2024/04/03 01:09:31;;;;;;;;;;;;;;;8.96;76.04;98558.35;102964;1262;99178;-82
2024/04/03 01:11:58;;;;;;;8.90;3.00;;;;;;;8.92;76.13;98558.02;102975;1266;123661;-82
2024/04/03 01:14:27;;;;;;;6.50;3.40;;;;;;;8.89;76.11;98558.70;103091;1266;99162;-84
2024/04/03 01:16:53;;;;;;;8.30;3.60;;;;;;;8.91;76.19;98561.18;102076;1262;1002936;-84
2024/04/03 01:19:20;;;;;;;6.30;3.70;;;;;;;8.93;75.99;98563.86;103041;1262;106071;-87
2024/04/03 01:21:48;;;;;;;6.00;3.40;;;;;;;8.94;76.13;98560.68;103065;1265;99171;-85
2024/04/03 01:24:20;;;;;;;6.80;3.40;;;;;;;8.97;76.07;98565.21;102845;1262;139156;-88
2024/04/03 01:26:47;;;;;;;4.70;3.20;;;;;;;8.99;76.03;98560.29;102991;1266;99179;-87
2024/04/03 01:29:14;;;;;;;6.40;3.40;;;;;;;9.01;76.06;98557.75;102877;1262;136975;-85
2024/04/03 01:31:41;;;;;;;5.30;3.00;;;;;;;9.03;76.05;98564.90;102802;1267;107611;-86
2024/04/03 01:34:08;;;;;;;4.90;2.90;;;;;;;9.04;76.06;98558.77;102671;1262;138549;-87
2024/04/03 01:36:34;;;;;;;5.70;3.10;;;;;;;9.05;76.14;98564.25;102676;1267;108088;-84
2024/04/03 01:39:01;;;;;;;6.80;3.20;;;;;;;9.05;76.03;98556.98;102797;1262;99177;-87
2024/04/03 01:41:28;;;;;;;5.40;2.90;;;;;;;9.06;76.03;98557.44;102684;1262;139332;-86
2024/04/03 01:43:54;;;;;;;5.90;3.50;;;;;;;9.08;75.94;98555.95;102861;1262;106804;-87
2024/04/03 01:46:21;;;;;;;8.40;3.20;;;;;;;9.09;75.83;98557.48;102633;1262;140411;-85
2024/04/03 01:48:47;;;;;;;6.60;3.10;;;;;;;9.11;75.88;98548.70;102782;1262;108530;-82
2024/04/03 01:51:14;;;;;;;4.60;3.30;;;;;;;9.13;75.87;98549.14;102023;1266;1002874;-83
2024/04/03 01:53:40;;;;;;;6.80;3.10;;;;;;;9.14;75.81;98550.95;101878;1262;1003566;-84
2024/04/03 01:56:08;;;;;;;6.40;3.60;;;;;;;9.15;75.80;98553.68;102797;1262;107508;-84
2024/04/03 01:58:35;;;;;;;8.10;3.50;;;;;;;9.14;75.71;98555.13;102591;1266;139596;-85
2024/04/03 02:01:01;;;;;;;6.00;3.30;;;;;;;9.14;75.66;98553.08;102710;1267;108861;-84
2024/04/03 02:03:26;;;;;;;;;;;;;;;9.13;75.70;98544.45;102830;1262;99922;-84
2024/04/03 02:05:53;;;;;;;6.50;3.30;;;;;;;9.10;75.66;98553.77;102845;1261;124735;-84
2024/04/03 02:08:20;;;;;;;6.50;3.40;;;;;;;9.08;75.70;98550.90;102841;1262;107858;-84
2024/04/03 02:10:46;;;;;;;5.40;2.90;;;;;;;9.09;75.62;98559.02;101913;1264;1003338;-85
2024/04/03 02:13:13;;;;;;;4.90;3.20;;;;;;;9.08;75.60;98552.67;102947;1261;107110;-85
2024/04/03 02:15:40;;;;;;;5.80;3.20;;;;;;;9.09;75.82;98558.66;102787;1262;99146;-85
2024/04/03 02:18:07;;;;;;;5.30;3.20;;;;;;;9.08;75.80;98552.15;102960;1266;138293;-85
2024/04/03 02:20:35;;;;;;;5.00;3.10;;;;;;;9.07;75.82;98547.53;102957;1261;107858;-86
2024/04/03 02:23:02;;;;;;;6.70;3.40;;;;;;;9.08;75.82;98550.75;102667;1262;138467;-85
2024/04/03 02:25:31;;;;;;;6.80;3.40;;;;;;;9.08;75.96;98545.41;103077;1262;106698;-86
2024/04/03 02:27:56;;;;;;;;;;;;;;;9.06;75.99;98542.35;102862;1262;99095;-85
2024/04/03 02:30:23;;;;;;;7.80;2.80;;;;;;;9.03;76.22;98545.80;102074;1261;1003032;-85
2024/04/03 02:32:51;;;;;;;5.90;2.90;;;;;;;9.01;76.44;98545.75;102820;1266;107558;-87
2024/04/03 02:35:17;;;;;;;4.50;2.70;;;;;;;9.01;76.72;98534.71;102848;1262;139049;-85
2024/04/03 02:37:44;;;;;;;5.00;3.10;;;;;;;8.99;76.84;98537.05;102802;1262;107227;-85
2024/04/03 02:40:09;;;;;;;;;;;;;;;8.96;77.04;98538.04;102746;1262;138659;-87
2024/04/03 02:42:36;;;;;;;7.00;2.80;;;;;;;8.92;77.12;98535.31;103152;1262;111290;-87
2024/04/03 02:45:02;;;;;;;4.70;2.90;;;;;;;8.88;76.92;98536.09;102804;1267;108028;-87
2024/04/03 02:47:29;;;;;;;7.70;2.70;;;;;;;8.88;77.11;98540.25;102755;1262;138587;-86
2024/04/03 02:49:55;;;;;;;4.20;2.60;;;;;;;8.88;76.99;98539.52;102847;1261;107336;-87
2024/04/03 02:52:22;;;;;;;4.90;2.60;;;;;;;8.89;76.98;98537.08;102722;1262;138871;-86
2024/04/03 02:54:49;;;;;;;5.40;2.90;;;;;;;8.90;76.98;98534.73;102872;1262;112547;-86
2024/04/03 02:57:15;;;;;;;5.90;2.60;;;;;;;8.90;76.84;98536.48;102827;1262;107335;-86
2024/04/03 02:59:42;;;;;;;4.70;2.50;;;;;;;8.90;76.80;98533.35;102781;1262;138980;-85
2024/04/03 03:02:08;;;;;;;6.90;2.40;;;;;;;8.92;76.63;98542.79;102213;1262;1002944;-84
2024/04/03 03:04:44;;;;;;;5.30;2.30;;;;;;;8.94;76.66;98544.89;102834;1262;139442;-90
2024/04/03 03:07:11;;;;;;;5.00;2.50;;;;;;;8.95;76.54;98537.58;102487;1262;1003254;-85
2024/04/03 03:09:38;;;;;;;6.20;2.50;;;;;;;8.95;76.47;98546.58;102970;1262;107160;-84
2024/04/03 03:12:06;;;;;;;5.30;2.60;;;;;;;8.95;76.45;98540.18;102619;1266;138710;-85
2024/04/03 03:14:33;;;;;;;4.30;2.40;;;;;;;8.95;76.29;98533.23;102721;1266;108026;-85
2024/04/03 03:16:58;;;;;;;;;;;;;;;8.95;76.29;98534.45;102646;1262;138734;-85
2024/04/03 03:19:24;;;;;;;3.00;2.30;;;;;;;8.94;76.30;98536.08;102744;1267;110467;-84
2024/04/03 03:21:49;;;;;;;;;;;;;;;8.93;76.20;98537.88;102759;1262;106730;-86
2024/04/03 03:24:18;;;;;;;6.30;3.00;;;;;;;8.90;76.21;98533.52;102684;1261;123986;-85
2024/04/03 03:26:45;;;;;;;7.20;2.60;;;;;;;8.90;76.29;98529.89;102780;1262;106878;-85
2024/04/03 03:29:10;;;;;;;;;;;;;;;8.91;76.25;98523.06;101875;1266;1003452;-85
2024/04/03 03:31:36;;;;;;;4.00;2.70;;;;;;;8.89;76.22;98521.27;102685;1262;113385;-85
2024/04/03 03:34:03;;;;;;;5.50;2.60;;;;;;;8.88;76.29;98521.83;102594;1266;138617;-77
2024/04/03 03:36:29;;;;;;;3.90;3.00;;;;;;;8.90;76.31;98515.66;102698;1266;99441;-81
2024/04/03 03:38:56;;;;;;;6.20;3.00;;;;;;;8.91;76.25;98524.80;102683;1262;106913;-85
2024/04/03 03:41:22;;;;;;;5.10;3.00;;;;;;;8.91;76.30;98526.86;102641;1262;138265;-85
2024/04/03 03:43:47;;;;;;;;;;;;;;;8.92;76.35;98524.60;102791;1261;112801;-85
2024/04/03 03:46:14;;;;;;;4.40;3.00;;;;;;;8.89;76.33;98539.30;102602;1262;124826;-85
2024/04/03 03:54:14;;;;;;;8.20;2.80;;;;;;;8.84;76.75;98535.56;101516;1272;1003320;-85
2024/04/03 03:56:41;;;;;;;5.10;2.70;;;;;;;8.84;76.64;98535.94;102399;1267;112581;-85
2024/04/03 03:59:10;;;;;;;8.20;2.70;;;;;;;8.84;76.71;98527.13;102266;1267;138943;-81
2024/04/03 04:01:36;;;;;;;4.90;3.00;;;;;;;8.85;76.75;98521.82;102357;1267;99927;-80
2024/04/03 04:04:01;;;;;;;;;;;;;;;8.85;76.68;98531.71;101681;1267;1004039;-82
2024/04/03 04:06:28;;;;;;;4.90;3.10;;;;;;;8.84;76.80;98525.55;102376;1272;99240;-81
2024/04/03 04:08:54;;;;;;;5.00;2.90;;;;;;;8.82;76.84;98526.84;101763;1273;1002919;-72
2024/04/03 04:11:21;;;;;;;5.60;3.00;;;;;;;8.85;77.18;98523.20;102247;1268;139615;-71
2024/04/03 04:13:48;;;;;;;3.40;2.60;;;;;;;8.91;77.66;98519.63;102424;1272;99321;-71
2024/04/03 04:16:15;;;;;;;3.50;2.50;;;;;;;8.89;77.50;98510.70;102307;1272;138923;-70
2024/04/03 04:18:41;;;;;;;5.00;2.90;;;;;;;8.99;77.43;98523.35;102386;1268;99169;-71
2024/04/03 04:21:06;;;;;;;;;;;;;;;9.01;77.11;98527.59;102406;1268;112011;-71
2024/04/03 04:23:33;;;;;;;4.00;3.20;;;;;;;9.03;77.59;98510.83;102213;1268;124940;-78
2024/04/03 04:26:01;;;;;;;;;;;;;;;9.07;76.97;98519.96;102440;1267;99304;-75
2024/04/03 04:28:28;;;;;;;4.60;3.00;;;;;;;9.04;76.94;98518.19;101609;1267;1003846;-79
2024/04/03 04:31:00;;;;;;;6.90;3.20;;;;;;;9.03;76.80;98518.64;102768;1262;99185;-79
2024/04/03 04:33:27;;;;;;;7.50;3.90;;;;;;;9.01;77.15;98513.34;102759;1262;111797;-79
2024/04/03 04:35:57;;;;;;;8.80;4.00;;;;;;;9.03;76.98;98524.52;102607;1262;138606;-81
2024/04/03 04:38:24;;;;;;;3.80;3.40;;;;;;;9.03;76.92;98520.20;102758;1262;99261;-79
2024/04/03 04:40:59;;;;;;;4.70;3.70;;;;;;;9.02;76.86;98517.27;102580;1264;138686;-80
2024/04/03 04:43:27;;;;;;;5.60;3.90;;;;;;;9.04;77.10;98515.62;102659;1262;99230;-77
2024/04/03 04:46:01;;;;;;;5.90;4.30;;;;;;;9.06;76.94;98519.33;102709;1267;111799;-78
2024/04/03 04:48:29;;;;;;;5.10;4.40;;;;;;;9.06;76.80;98515.98;102667;1263;108573;-75
2024/04/03 04:50:57;;;;;;;6.70;4.10;;;;;;;9.08;77.05;98513.51;102661;1262;99157;-77
2024/04/03 04:53:24;;;;;;;4.50;4.10;;;;;;;9.08;77.09;98515.91;102590;1262;138167;-76
2024/04/03 04:56:01;;;;;;;4.80;4.40;;;;;;;9.14;77.06;98515.45;102663;1264;99212;-75
2024/04/03 04:58:28;;;;;;;6.40;4.80;;;;;;;9.17;76.98;98517.20;103200;1262;138429;-78
2024/04/03 05:01:02;;;;;;;5.40;4.90;;;;;;;9.19;76.92;98518.50;102717;1266;107893;-77
2024/04/03 05:03:29;;;;;;;6.50;5.10;;;;;;;9.20;76.91;98514.77;101993;1262;1002854;-72
2024/04/03 05:05:56;;;;;;;7.40;4.90;;;;;;;9.22;76.84;98509.45;102585;1262;139083;-77
2024/04/03 05:08:22;;;;;;;5.30;4.80;;;;;;;9.25;76.89;98515.72;101750;1263;1003636;-79
2024/04/03 05:10:52;;;;;;;6.20;5.00;;;;;;;9.27;76.74;98518.02;102610;1262;138697;-78
2024/04/03 05:13:19;;;;;;;6.90;5.00;;;;;;;9.29;76.77;98515.14;102547;1262;106574;-78
2024/04/03 05:15:46;;;;;;;7.00;4.50;;;;;;;9.34;76.66;98527.36;102748;1262;100271;-78
2024/04/03 05:18:13;;;;;;;6.20;4.20;;;;;;;9.37;76.58;98518.88;102727;1262;139132;-75
2024/04/03 05:20:40;;;;;;;6.60;4.00;;;;;;;9.42;76.64;98526.75;102785;1262;99168;-80
2024/04/03 05:23:07;;;;;;;5.40;4.10;;;;;;;9.43;76.52;98533.62;102611;1262;138226;-69
2024/04/03 05:25:34;;;;;;;5.30;4.20;;;;;;;9.46;76.59;98528.27;102757;1262;107008;-79
2024/04/03 05:28:00;;;;;;;5.30;4.10;;;;;;;9.47;76.50;98528.17;102695;1262;99184;-75
2024/04/03 05:30:28;;;;;;;5.10;4.30;;;;;;;9.48;76.70;98525.87;102629;1266;108513;-79
2024/04/03 05:32:57;;;;;;;4.60;3.90;;;;;;;9.46;76.82;98525.48;102674;1266;99172;-78
2024/04/03 05:35:22;;;;;;;;;;;;;;;9.46;76.59;98532.42;102663;1267;139599;-79
2024/04/03 05:37:48;;;;;;;4.50;3.90;;;;;;;9.43;76.57;98532.91;102680;1264;108129;-79
2024/04/03 05:40:15;;;;;;;5.90;3.40;;;;;;;9.42;76.51;98530.02;102695;1261;138553;-79
2024/04/03 05:42:42;;;;;;;3.40;3.00;;;;;;;9.46;76.50;98528.79;102752;1267;108884;-79
2024/04/03 05:45:07;;;;;;;;;;;;;;;9.49;76.16;98537.63;102685;1262;99062;-79
2024/04/03 05:47:35;;;;;;;4.20;3.60;;;;;;;9.51;76.20;98527.45;102452;1264;124727;-78
2024/04/03 05:50:05;;;;;;;5.80;3.30;;;;;;;9.53;75.99;98533.42;102669;1267;107661;-78
2024/04/03 05:52:32;;;;;;;4.20;3.40;;;;;;;9.56;75.84;98537.44;101850;1262;1002955;-78
2024/04/03 05:54:58;;;;;;;3.70;3.10;;;;;;;9.58;75.94;98545.31;102659;1262;106928;-79
2024/04/03 05:57:25;;;;;;;6.00;3.10;;;;;;;9.60;75.89;98544.27;102742;1262;99177;-74
2024/04/03 05:59:51;;;;;;;9.50;3.10;;;;;;;9.64;75.94;98541.61;102670;1262;138184;-77
2024/04/03 06:02:18;;;;;;;4.80;3.10;;;;;;;9.69;75.88;98541.39;102699;1262;107839;-78
2024/04/03 06:04:44;;;;;;;6.10;3.30;;;;;;;9.68;75.76;98542.09;102708;1262;138544;-80
2024/04/03 06:07:11;;;;;;;4.10;3.20;;;;;;;9.66;75.86;98541.49;102693;1262;109343;-85
2024/04/03 06:09:36;;;;;;;;;;;;;;;9.63;75.83;98543.93;102758;1267;99181;-85
2024/04/03 06:12:07;;;;;;;4.90;3.10;;;;;;;9.59;76.29;98545.07;102642;1262;124757;-86
2024/04/03 06:14:34;;;;;;;8.20;3.80;;;;;;;9.53;76.78;98553.04;102772;1262;106927;-87
2024/04/03 06:16:58;;;;;;;;;;;;;;;9.49;77.19;98550.48;102742;1262;139233;-86
2024/04/03 06:19:25;;;;;;;6.20;3.40;;;;;;;9.45;77.49;98555.36;102020;1262;1003247;-85
2024/04/03 06:21:50;;;;;;;;;;;;;;;9.46;77.75;98545.39;102785;1262;99191;-85
2024/04/03 06:24:18;;;;;;;4.50;4.00;;;;;;;9.46;77.78;98554.98;102665;1262;125849;-85
2024/04/03 06:26:44;;;;;;;4.90;3.80;;;;;;;9.40;77.98;98555.27;102720;1267;107776;-84
2024/04/03 06:29:11;;;;;;;4.50;4.10;;;;;;;9.37;78.04;98555.97;102708;1262;138578;-82
2024/04/03 06:31:38;;;;;;;4.50;3.60;;;;;;;9.34;78.44;98558.02;102724;1262;107394;-82
2024/04/03 06:34:04;;;;;;;4.00;3.40;;;;;;;9.34;78.26;98557.54;102764;1267;99086;-77
2024/04/03 06:36:32;;;;;;;5.80;3.50;;;;;;;9.38;78.53;98562.84;103132;1262;111975;-85
2024/04/03 06:38:58;;;;;;;3.60;3.20;;;;;;;9.41;78.63;98565.98;102684;1262;107460;-85
2024/04/03 06:41:25;;;;;;;9.60;4.10;;;;;;;9.41;78.78;98557.85;102685;1265;138642;-78
2024/04/03 06:43:51;;;;;;;7.70;3.70;;;;;;;9.44;78.74;98569.11;102198;1262;1002849;-82
2024/04/03 06:46:18;;;;;;;6.30;3.20;;;;;;;9.52;78.69;98562.60;102696;1262;137686;-86
2024/04/03 06:48:46;;;;;;;8.40;3.50;;;;;;;9.68;78.41;98564.35;102797;1263;112753;-86
2024/04/03 06:51:12;;;;;;;5.40;3.00;;;;;;;9.86;77.96;98564.75;102793;1262;106095;-87
2024/04/03 06:53:39;;;;;;;4.20;3.00;;;;;;;10.00;77.38;98560.98;102667;1262;139646;-87
2024/04/03 06:56:07;;;;;;;5.40;2.90;;;;;;;10.08;76.83;98567.11;103339;1262;107687;-84
2024/04/03 06:58:42;;;;;;;6.30;3.50;;;;;;;10.10;76.84;98564.91;102588;1263;138928;-84
2024/04/03 07:01:09;;;;;;;6.00;2.90;;;;;;;10.14;76.70;98570.78;102925;1265;111577;-85
2024/04/03 07:03:36;;;;;;;3.90;2.90;;;;;;;10.15;76.70;98575.27;102634;1262;107742;-81
2024/04/03 07:06:03;;;;;;;7.40;3.00;;;;;;;10.15;76.44;98584.29;102654;1262;139488;-85
2024/04/03 07:08:30;;;;;;;5.40;2.80;;;;;;;10.11;76.62;98583.45;102761;1268;107738;-85
2024/04/03 07:10:56;;;;;;;5.40;3.10;;;;;;;10.04;76.99;98581.23;102657;1265;139741;-83
2024/04/03 07:13:23;;;;;;;6.30;3.00;;;;;;;9.95;77.40;98589.08;102725;1266;113096;-84
2024/04/03 07:15:50;;;;;;;4.60;2.90;;;;;;;9.89;77.41;98588.71;103093;1266;107406;-85
2024/04/03 07:18:17;;;;;;;4.90;3.00;;;;;;;9.81;77.78;98591.90;102964;1267;138369;-82
2024/04/03 07:20:52;;;;;;;4.60;3.60;;;;;;;9.77;78.12;98599.94;102751;1262;107359;-82
2024/04/03 07:23:21;;;;;;;8.10;3.40;;;;;;;9.74;78.50;98593.02;102579;1268;138552;-86
2024/04/03 07:25:48;;;;;;;4.00;3.30;;;;;;;9.73;78.56;98604.48;102872;1262;113039;-86
2024/04/03 07:28:15;;;;;;;6.50;3.50;;;;;;;9.71;78.74;98601.69;103038;1262;139547;-88
2024/04/03 07:30:42;;;;;;;6.90;3.80;;;;;;;9.68;79.14;98600.41;102898;1262;99863;-89
2024/04/03 07:33:09;;;;;;;4.70;3.40;;;;;;;9.70;79.16;98609.73;102933;1262;105912;-86
2024/04/03 07:35:36;;;;;;;6.50;3.10;;;;;;;9.74;79.09;98605.02;102098;1262;1003017;-85
2024/04/03 07:38:04;;;;;;;5.70;3.50;;;;;;;9.78;79.05;98596.58;102970;1266;112569;-83
2024/04/03 07:40:31;;;;;;;5.40;3.10;;;;;;;9.84;79.05;98606.14;102099;1261;1002897;-86
2024/04/03 07:42:59;;;;;;;7.70;3.40;;;;;;;9.86;78.90;98606.38;103079;1262;99152;-85
2024/04/03 07:45:26;;;;;;;4.30;3.10;;;;;;;9.92;78.87;98607.98;102996;1266;107590;-85
2024/04/03 07:47:53;;;;;;;7.20;3.90;;;;;;;10.09;78.81;98609.78;103083;1262;137808;-85
2024/04/03 07:50:20;;;;;;;5.60;3.10;;;;;;;10.41;78.33;98610.24;102783;1261;114031;-84
2024/04/03 07:52:47;;;;;;;4.20;3.10;;;;;;;10.66;77.36;98593.35;101992;1263;1003091;-85
2024/04/03 07:55:15;;;;;;;4.90;3.20;;;;;;;10.75;76.72;98606.52;101958;1266;1002698;-85
2024/04/03 07:57:42;;;;;;;4.70;3.10;;;;;;;10.92;76.39;98606.94;102705;1267;107457;-86
2024/04/03 08:00:11;;;;;;;7.60;3.20;;;;;;;11.25;75.96;98606.66;102856;1262;139385;-86
2024/04/03 08:02:40;;;;;;;6.30;3.20;;;;;;;11.57;74.86;98601.52;103000;1262;110381;-59
2024/04/03 08:05:09;;;;;;;6.50;3.30;;;;;;;11.77;74.13;98607.05;102543;1265;138890;-81
2024/04/03 08:07:36;;;;;;;3.90;2.70;;;;;;;12.02;73.32;98598.71;103298;1262;99162;-82
2024/04/03 08:10:05;;;;;;;4.50;2.90;;;;;;;12.62;72.11;98590.61;102769;1262;106451;-90
2024/04/03 08:12:33;;;;;;;4.10;2.50;;;;;;;13.18;69.45;98590.76;102968;1267;99243;-88
2024/04/03 08:15:01;;;;;;;4.50;2.40;;;;;;;13.44;68.49;98599.11;102979;1262;111082;-86
2024/04/03 08:17:28;;;;;;;5.70;2.40;;;;;;;13.75;67.04;98589.23;102749;1262;137945;-91
2024/04/03 08:19:57;;;;;;;6.90;2.90;;;;;;;13.71;66.06;98599.30;103265;1262;99076;-84
2024/04/03 08:22:23;;;;;;;3.90;2.30;;;;;;;13.67;66.26;98596.08;102620;1264;138527;-83
2024/04/03 08:24:52;;;;;;;6.80;2.80;;;;;;;13.67;65.44;98596.08;103198;1262;99163;-83
2024/04/03 08:27:20;;;;;;;3.60;2.40;;;;;;;13.49;65.98;98595.33;102854;1262;112482;-84
2024/04/03 08:29:48;;;;;;;3.10;2.30;;;;;;;13.30;65.91;98602.04;102800;1262;140861;-84
2024/04/03 08:32:16;;;;;;;4.20;2.60;;;;;;;13.05;65.97;98598.15;102951;1267;99742;-83
2024/04/03 08:34:43;;;;;;;5.10;2.80;;;;;;;12.79;66.42;98596.07;102761;1262;138728;-84
2024/04/03 08:37:10;;;;;;;8.20;3.20;;;;;;;12.55;66.73;98595.09;102803;1262;99164;-83
2024/04/03 08:39:37;;;;;;;5.00;2.80;;;;;;;12.31;67.28;98596.64;103007;1266;112396;-82
2024/04/03 08:42:04;;;;;;;8.20;3.30;;;;;;;12.13;67.90;98597.84;102654;1262;138797;-80
2024/04/03 08:44:34;;;;;;;5.50;2.90;;;;;;;11.92;68.11;98599.38;102813;1262;99267;-84
2024/04/03 08:47:03;;;;;;;7.60;2.80;;;;;;;11.71;68.59;98598.94;102740;1266;138608;-89
2024/04/03 08:49:33;;;;;;;6.80;3.30;;;;;;;11.57;69.07;98602.98;102936;1267;98889;-85
2024/04/03 08:52:02;;;;;;;3.90;3.40;;;;;;;11.46;69.61;98599.80;102805;1266;111592;-87
2024/04/03 08:54:30;;;;;;;4.60;3.10;;;;;;;11.33;69.97;98595.73;102899;1266;107820;-88
2024/04/03 08:57:00;;;;;;;4.70;3.10;;;;;;;11.20;70.50;98605.02;102071;1262;1002487;-82
2024/04/03 08:59:27;;;;;;;6.90;3.90;;;;;;;11.09;71.50;98630.77;102991;1262;137835;-89
2024/04/03 09:01:54;;;;;;;2.70;1.80;;;;;;;10.92;73.43;98642.56;102785;1263;99185;-89
2024/04/03 09:04:22;;;;;;;3.10;1.60;;;;;;;10.61;72.04;98648.23;102895;1268;137865;-87
2024/04/03 09:06:49;;;;;;;3.70;1.30;;;;;;;10.28;71.77;98657.52;102905;1262;107957;-90
2024/04/03 09:09:20;;;;;;;3.30;1.20;;;;;;;10.05;72.15;98661.94;102096;1262;1002805;-85
2024/04/03 09:11:50;;;;;;;2.00;0.80;;;;;;;9.85;72.68;98667.92;102870;1267;209138;-83
2024/04/03 09:14:22;;;;;;;2.90;1.20;;;;;;;9.69;73.02;98669.27;102736;1267;99317;-80
2024/04/03 09:16:49;;;;;;;1.50;0.90;;;;;;;9.69;73.60;98667.55;102685;1265;138555;-77
2024/04/03 09:19:27;;;;;;;2.30;1.00;;;;;;;9.71;73.83;98672.48;103025;1267;108151;-79
2024/04/03 09:21:54;;;;;;;6.50;1.10;;;;;;;9.72;74.48;98675.55;103015;1263;99273;-61
2024/04/03 09:24:20;;;;;;;3.00;1.60;;;;;;;9.82;75.83;98674.48;103135;1262;139051;-61
2024/04/03 09:26:48;;;;;;;2.20;1.00;;;;;;;9.90;75.61;98678.77;102805;1267;99188;-61
2024/04/03 09:29:17;;;;;;;6.10;1.90;;;;;;;9.94;75.17;98688.59;102965;1262;138535;-62
2024/04/03 09:31:44;;;;;;;1.80;1.20;;;;;;;10.03;75.20;98685.67;103281;1262;107798;-61
2024/04/03 09:34:11;;;;;;;2.80;1.20;;;;;;;10.16;75.21;98690.88;102974;1262;138936;-61
2024/04/03 09:36:39;;;;;;;2.10;1.40;;;;;;;10.28;74.89;98692.46;102765;1266;108836;-61
2024/04/03 09:39:06;;;;;;;2.30;1.40;;;;;;;10.42;74.99;98697.63;102713;1262;99031;-61
2024/04/03 09:41:34;;;;;;;3.10;1.80;;;;;;;10.53;74.56;98689.30;102910;1267;139907;-61
2024/04/03 09:44:02;;;;;;;1.90;1.30;;;;;;;10.62;74.28;98708.10;102733;1262;108693;-61
2024/04/03 09:46:39;;;;;;;4.10;1.40;;;;;;;10.68;73.93;98711.61;102645;1266;138956;-61
2024/04/03 09:49:08;;;;;;;3.30;1.40;;;;;;;10.72;73.83;98721.77;103760;1262;108229;-60
2024/04/03 09:51:35;;;;;;;4.00;1.50;;;;;;;10.69;73.44;98710.66;103047;1262;99187;-62
2024/04/03 09:54:03;;;;;;;3.10;1.50;;;;;;;10.70;73.60;98722.23;102643;1262;137805;-61
2024/04/03 09:56:30;;;;;;;7.60;1.70;;;;;;;10.66;72.80;98726.84;102942;1266;107389;-60
2024/04/03 09:58:56;;;;;;;3.10;1.40;;;;;;;10.61;73.05;98736.50;102678;1263;138751;-61
2024/04/03 10:01:28;;;;;;;3.30;1.50;;;;;;;10.58;72.83;98741.85;102747;1266;108120;-63
2024/04/03 10:04:04;;;;;;;5.00;1.50;;;;;;;10.58;72.88;98745.51;102860;1266;99289;-79
2024/04/03 10:06:35;;;;;;;3.20;1.80;;;;;;;10.53;72.18;98748.73;103055;1266;110918;-78
2024/04/03 10:09:16;;;;;;;2.70;1.50;;;;;;;10.45;71.98;98749.06;102649;1267;107191;-78
2024/04/03 10:11:47;;;;;;;2.30;1.50;;;;;;;10.36;71.81;98750.23;103134;1262;138983;-81
2024/04/03 10:14:26;;;;;;;4.40;1.90;;;;;;;10.29;71.70;98749.75;102160;1267;1002738;-80
2024/04/03 10:16:53;;;;;;;3.50;1.90;;;;;;;10.19;71.66;98759.98;102635;1264;138894;-81
2024/04/03 10:19:24;;;;;;;3.10;1.70;;;;;;;10.11;71.97;98759.73;102787;1262;112280;-82
2024/04/03 10:21:51;;;;;;;3.60;1.90;;;;;;;10.09;72.32;98760.21;102742;1263;107280;-83
2024/04/03 10:24:19;;;;;;;2.60;1.80;;;;;;;10.07;72.66;98759.60;102697;1265;138797;-85
2024/04/03 10:26:46;;;;;;;3.10;1.80;;;;;;;10.04;72.89;98759.09;102834;1263;107997;-85
2024/04/03 10:29:15;;;;;;;4.50;1.80;;;;;;;10.02;73.20;98759.88;102937;1262;139405;-87
2024/04/03 10:31:42;;;;;;;4.40;2.00;;;;;;;10.02;73.44;98762.31;102857;1267;113039;-85
2024/04/03 10:34:09;;;;;;;2.80;1.80;;;;;;;10.04;73.74;98761.14;103103;1262;139070;-82
2024/04/03 10:36:35;;;;;;;3.90;2.80;;;;;;;10.06;73.76;98769.91;102806;1263;99179;-86
2024/04/03 10:39:01;;;;;;;;;;;;;;;10.07;73.59;98763.95;102851;1262;108452;-80
2024/04/03 10:41:28;;;;;;;3.10;2.00;;;;;;;10.09;73.64;98762.97;102001;1275;1127986;-84
2024/04/03 10:43:57;;;;;;;2.40;2.00;;;;;;;10.17;73.60;98768.80;102822;1265;112625;-86
2024/04/03 10:46:27;;;;;;;3.90;2.10;;;;;;;10.22;73.47;98772.86;102635;1262;140905;-82
2024/04/03 10:48:56;;;;;;;5.00;2.20;;;;;;;10.27;73.16;98773.48;102792;1266;99060;-81
2024/04/03 10:51:23;;;;;;;2.90;2.10;;;;;;;10.36;73.26;98770.91;102809;1263;108003;-83
2024/04/03 10:53:50;;;;;;;3.40;2.50;;;;;;;10.45;73.12;98781.73;102710;1262;141951;-82
2024/04/03 10:56:18;;;;;;;4.00;2.40;;;;;;;10.48;72.91;98787.26;103021;1265;112781;-82
2024/04/03 10:58:45;;;;;;;4.20;2.70;;;;;;;10.40;72.35;98782.52;102700;1267;138975;-76
2024/04/03 11:01:13;;;;;;;4.50;2.70;;;;;;;10.24;72.47;98796.57;102809;1266;99125;-81
2024/04/03 11:03:42;;;;;;;8.40;3.10;;;;;;;10.11;72.80;98795.67;102102;1262;1003113;-82
2024/04/03 11:06:10;;;;;;;4.40;2.80;;;;;;;10.02;73.10;98798.59;102978;1267;139098;-82
2024/04/03 11:08:36;;;;;;;6.00;3.10;;;;;;;9.92;73.20;98802.05;102721;1262;112599;-82
2024/04/03 11:11:08;;;;;;;5.70;3.40;;;;;;;9.83;73.62;98797.99;101928;1266;1003584;-85
2024/04/03 11:13:36;;;;;;;6.80;3.20;;;;;;;9.80;74.13;98795.39;102847;1263;99169;-88
2024/04/03 11:16:10;;;;;;;4.80;2.60;;;;;;;9.78;74.51;98809.06;103095;1264;108793;-84
2024/04/03 11:18:36;;;;;;;7.30;3.50;;;;;;;9.75;74.94;98813.04;102990;1266;99263;-84
2024/04/03 11:21:05;;;;;;;6.70;3.60;;;;;;;9.70;75.44;98812.27;102126;1266;1002722;-81
2024/04/03 11:23:32;;;;;;;7.70;3.40;;;;;;;9.63;75.70;98809.29;102659;1264;138819;-80
2024/04/03 11:26:00;;;;;;;6.90;3.50;;;;;;;9.59;76.27;98814.88;102794;1266;99148;-80
2024/04/03 11:28:27;;;;;;;6.30;3.50;;;;;;;9.55;76.61;98817.52;102003;1262;1003777;-83
2024/04/03 11:30:54;;;;;;;6.40;3.00;;;;;;;9.48;76.77;98827.91;101638;1263;1003323;-84
2024/04/03 11:33:21;;;;;;;5.40;2.70;;;;;;;9.42;76.96;98840.36;102890;1262;114093;-81
2024/04/03 11:35:48;;;;;;;5.50;2.80;;;;;;;9.34;76.94;98850.11;102596;1267;138840;-77